This is the latest recevied weather packets stored in our database for station/object CX5ACA-13. If no packets are shown the sender has not sent any weather packets the latest 10 day(s).
| Time | Temp. | Humidity | Pressure | Rain* | Wind** | Luminosity | Snow |
|---|---|---|---|---|---|---|---|
| 1777819099 | 17.22° C | 52% | 1023.8 hPa | 0 mm | - | 478 W/m² | - |
| 1777818796 | 17.22° C | 51% | 1023.8 hPa | 0 mm | - | 470 W/m² | - |
| 1777818492 | 16.11° C | 54% | 1023.8 hPa | 0 mm | - | 466 W/m² | - |
| 1777818189 | 16.67° C | 52% | 1024.1 hPa | 0 mm | - | 461 W/m² | - |
| 1777817886 | 16.67° C | 53% | 1024 hPa | 0 mm | - | 451 W/m² | - |
| 1777817583 | 17.22° C | 53% | 1024.2 hPa | 0 mm | - | 446 W/m² | - |
| 1777817280 | 16.67° C | 52% | 1024.3 hPa | 0 mm | - | 436 W/m² | - |
| 1777816977 | 16.67° C | 52% | 1024.3 hPa | 0 mm | - | 431 W/m² | - |
| 1777816673 | 16.67° C | 56% | 1024.6 hPa | 0 mm | - | 369 W/m² | - |
| 1777816370 | 16.11° C | 55% | 1024.4 hPa | 0 mm | - | 413 W/m² | - |
| 1777816068 | 16.11° C | 56% | 1024.6 hPa | 0 mm | - | 401 W/m² | - |
| 1777815766 | 16.67° C | 54% | 1024.7 hPa | 0 mm | - | 392 W/m² | - |
| 1777815463 | 16.67° C | 55% | 1024.4 hPa | 0 mm | - | 383 W/m² | - |
| 1777815160 | 16.11° C | 56% | 1024.5 hPa | 0 mm | - | 376 W/m² | - |
| 1777814856 | 16.67° C | 55% | 1024.6 hPa | 0 mm | - | 363 W/m² | - |
| 1777814552 | 15.56° C | 56% | 1024.6 hPa | 0 mm | - | 353 W/m² | - |
| 1777814250 | 15.56° C | 57% | 1024.6 hPa | 0 mm | - | 346 W/m² | - |
| 1777813947 | 15.56° C | 58% | 1024.5 hPa | 0 mm | - | 332 W/m² | - |
| 1777813644 | 16.11° C | 57% | 1024.7 hPa | 0 mm | - | 317 W/m² | - |
| 1777813341 | 15.56° C | 58% | 1024.7 hPa | 0 mm | - | 300 W/m² | - |
| 1777813039 | 16.11° C | 58% | 1024.8 hPa | 0 mm | - | 293 W/m² | - |
| 1777812737 | 15.56° C | 62% | 1024.8 hPa | 0 mm | - | 280 W/m² | - |
| 1777812433 | 15° C | 64% | 1024.8 hPa | 0 mm | - | 269 W/m² | - |
| 1777812131 | 15.56° C | 64% | 1025 hPa | 0 mm | - | 259 W/m² | - |
| 1777811829 | 14.44° C | 66% | 1024.8 hPa | 0 mm | - | 243 W/m² | - |
* Rain latest hour (hover to see other rain measurements)
** Current wind speed in m/s (hover to see current wind gust speed)